createdAt,value
2023-04-04T00:02:07.928Z,0.22
2023-04-04T00:04:34.469Z,0.23
2023-04-04T00:07:01.453Z,0.16
2023-04-04T00:09:28.941Z,0.21
2023-04-04T00:11:55.517Z,0.13
2023-04-04T00:14:21.990Z,0.22
2023-04-04T00:16:48.459Z,0.31
2023-04-04T00:19:15.305Z,0.20
2023-04-04T00:21:41.981Z,0.33
2023-04-04T00:24:08.601Z,0.36
2023-04-04T00:26:35.125Z,0.50
2023-04-04T00:29:01.614Z,0.30
2023-04-04T00:31:28.088Z,0.26
2023-04-04T00:33:54.567Z,0.23
2023-04-04T00:36:21.214Z,0.19
2023-04-04T00:38:48.535Z,0.07
2023-04-04T00:41:16.571Z,0.02
2023-04-04T00:43:43.085Z,0.07
2023-04-04T00:46:09.706Z,0.02
2023-04-04T00:48:36.238Z,0.02
2023-04-04T00:51:03.215Z,-0.04
2023-04-04T00:53:29.727Z,0.09
2023-04-04T00:55:56.229Z,0.19
2023-04-04T00:58:24.737Z,0.06
2023-04-04T01:00:51.400Z,0.02
2023-04-04T01:03:18.690Z,-0.09
2023-04-04T01:05:45.255Z,-0.22
2023-04-04T01:08:12.002Z,-0.27
2023-04-04T01:10:39.952Z,-0.32
2023-04-04T01:13:06.731Z,-0.32
2023-04-04T01:15:33.129Z,-0.35
2023-04-04T01:18:02.254Z,-0.35
2023-04-04T01:20:32.332Z,-0.47
2023-04-04T01:22:59.643Z,-0.40
2023-04-04T01:25:31.022Z,-0.49
2023-04-04T01:27:58.972Z,-0.57
2023-04-04T01:30:31.107Z,-0.65
2023-04-04T01:33:28.029Z,-0.74
2023-04-04T01:36:35.461Z,-0.82
2023-04-04T01:39:27.472Z,-0.82
2023-04-04T01:41:56.250Z,-0.88
2023-04-04T01:44:24.458Z,-0.95
2023-04-04T01:46:54.497Z,-0.99
2023-04-04T01:49:22.135Z,-1.03
2023-04-04T01:51:49.918Z,-1.07
2023-04-04T01:54:16.378Z,-1.14
2023-04-04T01:56:42.725Z,-1.21
2023-04-04T01:59:09.238Z,-1.18
2023-04-04T02:01:35.732Z,-1.13
2023-04-04T02:04:02.432Z,-1.19
2023-04-04T02:06:28.960Z,-1.29
2023-04-04T02:08:55.375Z,-1.26
2023-04-04T02:11:22.858Z,-1.34
2023-04-04T02:13:50.143Z,-1.40
2023-04-04T02:16:16.635Z,-1.42
2023-04-04T02:18:43.475Z,-1.46
2023-04-04T02:21:10.061Z,-1.51
2023-04-04T02:23:37.007Z,-1.52
2023-04-04T02:26:04.242Z,-1.47
2023-04-04T02:28:30.818Z,-1.46
2023-04-04T02:31:01.561Z,-1.51
2023-04-04T02:33:28.191Z,-1.53
2023-04-04T02:35:58.609Z,-1.52
2023-04-04T02:38:26.285Z,-1.51
2023-04-04T02:40:53.080Z,-1.54
2023-04-04T02:43:19.794Z,-1.57
2023-04-04T02:45:48.603Z,-1.58
2023-04-04T02:48:15.216Z,-1.62
2023-04-04T02:50:41.982Z,-1.71
2023-04-04T02:53:08.858Z,-1.77
2023-04-04T02:55:35.408Z,-1.80
2023-04-04T02:58:02.051Z,-1.85
2023-04-04T03:00:28.887Z,-1.92
2023-04-04T03:02:56.254Z,-1.86
2023-04-04T03:05:27.528Z,-1.95
2023-04-04T03:07:58.554Z,-2.01
2023-04-04T03:10:26.620Z,-2.01
2023-04-04T03:12:53.242Z,-2.02
2023-04-04T03:15:19.929Z,-2.05
2023-04-04T03:17:46.857Z,-2.00
2023-04-04T03:20:14.823Z,-2.03
2023-04-04T03:22:42.144Z,-2.04
2023-04-04T03:25:09.451Z,-2.07
2023-04-04T03:27:36.046Z,-2.04
2023-04-04T03:30:02.668Z,-1.96
2023-04-04T03:32:29.423Z,-1.99
2023-04-04T03:34:55.826Z,-2.08
2023-04-04T03:37:22.422Z,-2.11
2023-04-04T03:39:49.165Z,-2.16
2023-04-04T03:42:15.625Z,-2.16
2023-04-04T03:44:42.945Z,-2.26
2023-04-04T03:47:09.445Z,-2.19
2023-04-04T03:49:35.948Z,-2.13
2023-04-04T03:52:02.401Z,-2.19
2023-04-04T03:54:29.427Z,-2.23
2023-04-04T03:56:56.814Z,-2.25
2023-04-04T03:59:23.733Z,-2.29
2023-04-04T04:01:50.413Z,-2.34
2023-04-04T04:04:16.920Z,-2.44
2023-04-04T04:06:43.441Z,-2.47
2023-04-04T04:09:10.158Z,-2.54
2023-04-04T04:11:36.955Z,-2.54
2023-04-04T04:14:03.701Z,-2.56
2023-04-04T04:16:30.251Z,-2.58
2023-04-04T04:18:58.068Z,-2.57
2023-04-04T04:21:24.878Z,-2.61
2023-04-04T04:23:51.610Z,-2.60
2023-04-04T04:26:18.480Z,-2.58
2023-04-04T04:28:47.036Z,-2.58
2023-04-04T04:31:13.966Z,-2.56
2023-04-04T04:33:40.412Z,-2.59
2023-04-04T04:36:07.518Z,-2.57
2023-04-04T04:38:34.112Z,-2.62
2023-04-04T04:41:01.357Z,-2.70
2023-04-04T04:43:27.776Z,-2.75
2023-04-04T04:45:54.217Z,-2.76
2023-04-04T04:48:20.743Z,-2.73
2023-04-04T04:50:48.309Z,-2.75
2023-04-04T04:53:15.068Z,-2.81
2023-04-04T04:55:41.598Z,-2.78
2023-04-04T04:58:08.370Z,-2.79
2023-04-04T05:00:35.752Z,-2.75
2023-04-04T05:03:02.460Z,-2.81
2023-04-04T05:05:28.987Z,-2.79
2023-04-04T05:07:55.551Z,-2.79
2023-04-04T05:10:22.225Z,-2.71
2023-04-04T05:12:48.983Z,-2.76
2023-04-04T05:15:15.463Z,-2.74
2023-04-04T05:17:41.980Z,-2.73
2023-04-04T05:20:08.900Z,-2.70
2023-04-04T05:22:35.613Z,-2.67
2023-04-04T05:25:02.069Z,-2.58
2023-04-04T05:27:28.895Z,-2.55
2023-04-04T05:29:55.896Z,-2.52
2023-04-04T05:32:22.752Z,-2.51
2023-04-04T05:34:49.242Z,-2.49
2023-04-04T05:37:15.687Z,-2.49
2023-04-04T05:39:42.172Z,-2.52
2023-04-04T05:42:08.873Z,-2.48
2023-04-04T05:44:35.777Z,-2.49
2023-04-04T05:47:02.189Z,-2.48
2023-04-04T05:49:29.394Z,-2.38
2023-04-04T05:51:55.815Z,-2.27
2023-04-04T05:54:22.711Z,-2.27
2023-04-04T05:56:49.231Z,-2.18
2023-04-04T05:59:15.986Z,-2.07
2023-04-04T06:01:43.213Z,-1.96
2023-04-04T06:04:09.827Z,-1.87
2023-04-04T06:06:36.323Z,-1.76
2023-04-04T06:09:03.023Z,-1.66
2023-04-04T06:11:29.806Z,-1.47
2023-04-04T06:13:56.478Z,-1.30
2023-04-04T06:16:23.465Z,-1.23
2023-04-04T06:18:50.047Z,-1.09
2023-04-04T06:21:16.636Z,-0.91
2023-04-04T06:23:43.133Z,-0.70
2023-04-04T06:26:13.000Z,-0.65
2023-04-04T06:28:47.261Z,-0.55
2023-04-04T06:31:13.831Z,-0.40
2023-04-04T06:33:40.625Z,-0.24
2023-04-04T06:36:07.250Z,-0.07
2023-04-04T06:38:33.708Z,0.05
2023-04-04T06:41:00.145Z,0.22
2023-04-04T06:43:27.634Z,0.38
2023-04-04T06:45:55.261Z,0.73
2023-04-04T06:48:21.967Z,0.75
2023-04-04T06:50:48.519Z,0.81
2023-04-04T06:53:15.226Z,1.09
2023-04-04T06:55:41.707Z,0.99
2023-04-04T06:58:08.122Z,1.04
2023-04-04T07:00:34.621Z,1.07
2023-04-04T07:03:01.210Z,1.30
2023-04-04T07:05:28.006Z,1.49
2023-04-04T07:07:55.531Z,1.61
2023-04-04T07:10:23.659Z,1.81
2023-04-04T07:12:51.096Z,1.70
2023-04-04T07:15:17.576Z,1.72
2023-04-04T07:17:44.217Z,1.90
2023-04-04T07:20:11.494Z,1.78
2023-04-04T07:22:41.726Z,1.94
2023-04-04T07:25:11.026Z,2.22
2023-04-04T07:27:38.605Z,1.96
2023-04-04T07:30:05.740Z,2.33
2023-04-04T07:32:33.111Z,2.36
2023-04-04T07:34:59.462Z,2.24
2023-04-04T07:37:26.273Z,2.59
2023-04-04T07:39:53.055Z,2.56
2023-04-04T07:42:19.465Z,2.62
2023-04-04T07:44:46.100Z,2.95
2023-04-04T07:47:12.480Z,2.91
2023-04-04T07:49:38.932Z,2.90
2023-04-04T07:52:06.235Z,3.05
2023-04-04T07:54:32.752Z,3.47
2023-04-04T07:56:59.282Z,3.49
2023-04-04T07:59:25.924Z,3.79
2023-04-04T08:01:52.551Z,3.76
2023-04-04T08:04:19.005Z,3.63
2023-04-04T08:06:45.578Z,3.80
2023-04-04T08:09:15.312Z,4.11
2023-04-04T08:11:42.054Z,4.18
2023-04-04T08:14:08.594Z,4.44
2023-04-04T08:16:35.116Z,4.28
2023-04-04T08:19:02.737Z,4.15
2023-04-04T08:21:29.495Z,3.96
2023-04-04T08:23:56.057Z,4.26
2023-04-04T08:26:24.042Z,4.23
2023-04-04T08:28:51.492Z,4.39
2023-04-04T08:31:18.001Z,4.15
2023-04-04T08:33:47.578Z,4.81
2023-04-04T08:36:14.429Z,4.60
2023-04-04T08:38:40.777Z,5.23
2023-04-04T08:41:07.757Z,5.55
2023-04-04T08:43:35.158Z,5.43
2023-04-04T08:46:05.678Z,5.61
2023-04-04T08:48:33.510Z,5.42
2023-04-04T08:51:00.613Z,5.76
2023-04-04T08:53:29.399Z,5.08
2023-04-04T08:55:59.634Z,4.72
2023-04-04T08:58:26.424Z,4.87
2023-04-04T09:00:54.752Z,4.74
2023-04-04T09:03:26.320Z,4.94
2023-04-04T09:05:56.278Z,5.48
2023-04-04T09:08:23.468Z,4.84
2023-04-04T09:10:50.733Z,5.19
2023-04-04T09:13:17.590Z,6.14
2023-04-04T09:15:55.381Z,5.84
2023-04-04T09:18:24.281Z,5.88
2023-04-04T09:20:51.027Z,5.68
2023-04-04T09:23:19.125Z,5.24
2023-04-04T09:28:23.052Z,5.01
2023-04-04T09:30:50.400Z,5.55
2023-04-04T09:33:18.664Z,6.30
2023-04-04T09:36:06.984Z,6.63
2023-04-04T09:38:36.983Z,6.51
2023-04-04T09:41:07.122Z,6.84
2023-04-04T09:43:35.467Z,7.00
2023-04-04T09:46:03.782Z,6.80
2023-04-04T09:48:31.747Z,6.93
2023-04-04T09:50:59.156Z,7.11
2023-04-04T09:53:25.648Z,6.86
2023-04-04T09:55:54.998Z,7.29
2023-04-04T09:58:29.195Z,7.71
2023-04-04T10:01:00.596Z,6.43
2023-04-04T10:03:28.338Z,6.50
2023-04-04T10:06:07.390Z,6.45
2023-04-04T10:08:39.519Z,6.07
2023-04-04T10:11:12.029Z,6.48
2023-04-04T10:13:40.338Z,6.93
2023-04-04T10:16:07.660Z,6.82
2023-04-04T10:18:35.422Z,6.19
2023-04-04T10:23:36.880Z,7.32
2023-04-04T10:26:03.425Z,6.62
2023-04-04T10:28:29.801Z,7.15
2023-04-04T10:31:17.912Z,6.67
2023-04-04T10:34:07.398Z,7.44
2023-04-04T10:36:44.746Z,7.21
2023-04-04T10:39:15.102Z,6.56
2023-04-04T10:41:42.292Z,6.93
2023-04-04T10:44:29.592Z,6.77
2023-04-04T10:46:59.958Z,7.07
2023-04-04T10:49:27.886Z,7.60
2023-04-04T10:51:57.519Z,7.29
2023-04-04T10:54:26.626Z,8.10
2023-04-04T10:56:54.847Z,6.75
2023-04-04T10:59:21.470Z,7.02
2023-04-04T11:01:56.253Z,7.70
2023-04-04T11:04:31.363Z,7.49
2023-04-04T11:07:06.668Z,7.46
2023-04-04T11:10:12.832Z,7.97
2023-04-04T11:12:45.658Z,8.48
2023-04-04T11:15:14.463Z,6.75
2023-04-04T11:17:51.701Z,7.63
2023-04-04T11:20:21.851Z,7.43
2023-04-04T11:23:05.670Z,8.42
2023-04-04T11:25:35.102Z,8.56
2023-04-04T11:28:24.847Z,8.30
2023-04-04T11:31:14.014Z,8.51
2023-04-04T11:34:11.351Z,8.17
2023-04-04T11:36:37.856Z,8.44
2023-04-04T11:39:09.524Z,8.50
2023-04-04T11:41:51.768Z,8.69
2023-04-04T11:44:20.233Z,8.57
2023-04-04T11:46:49.223Z,8.44
2023-04-04T11:49:18.041Z,7.76
2023-04-04T11:51:45.894Z,7.90
2023-04-04T11:54:17.342Z,7.43
2023-04-04T11:56:45.526Z,7.44
2023-04-04T12:01:40.606Z,8.00
2023-04-04T12:04:07.169Z,7.25
2023-04-04T12:06:34.642Z,7.70
2023-04-04T12:09:06.388Z,7.10
2023-04-04T12:11:37.674Z,7.32
2023-04-04T12:14:04.246Z,7.06
2023-04-04T12:16:30.682Z,6.87
2023-04-04T12:19:01.992Z,7.91
2023-04-04T12:21:31.649Z,8.63
2023-04-04T12:23:58.360Z,8.87
2023-04-04T12:26:25.812Z,8.41
2023-04-04T12:28:52.384Z,8.66
2023-04-04T12:31:21.819Z,8.83
2023-04-04T12:33:48.584Z,8.02
2023-04-04T12:36:15.149Z,8.29
2023-04-04T12:39:10.559Z,8.12
2023-04-04T12:41:47.930Z,8.10
2023-04-04T12:44:32.174Z,8.32
2023-04-04T12:47:00.699Z,8.06
2023-04-04T12:49:32.412Z,8.29
2023-04-04T12:51:59.304Z,8.37
2023-04-04T12:54:27.899Z,9.12
2023-04-04T12:56:58.225Z,8.02
2023-04-04T12:59:29.445Z,7.71
2023-04-04T13:01:56.755Z,8.35
2023-04-04T13:04:24.740Z,8.14
2023-04-04T13:06:51.597Z,8.33
2023-04-04T13:09:26.844Z,8.71
2023-04-04T13:12:00.692Z,8.59
2023-04-04T13:14:48.208Z,8.74
2023-04-04T13:17:14.965Z,7.82
2023-04-04T13:19:41.603Z,8.72
2023-04-04T13:22:09.323Z,8.73
2023-04-04T13:24:35.962Z,9.06
2023-04-04T13:27:02.383Z,8.66
2023-04-04T13:29:28.847Z,8.93
2023-04-04T13:31:55.373Z,8.82
2023-04-04T13:34:23.002Z,9.01
2023-04-04T13:36:49.638Z,8.86
2023-04-04T13:39:16.021Z,9.15
2023-04-04T13:41:42.891Z,8.69
2023-04-04T13:44:10.014Z,8.78
2023-04-04T13:46:36.847Z,8.67
2023-04-04T13:49:03.854Z,8.64
2023-04-04T13:51:30.649Z,9.05
2023-04-04T13:53:57.182Z,8.43
2023-04-04T13:56:23.814Z,8.53
2023-04-04T13:58:50.417Z,8.50
2023-04-04T14:01:17.123Z,8.55
2023-04-04T14:03:43.665Z,8.63
2023-04-04T14:06:11.219Z,8.47
2023-04-04T14:08:38.446Z,8.43
2023-04-04T14:11:05.570Z,8.57
2023-04-04T14:13:32.080Z,8.39
2023-04-04T14:15:58.817Z,8.20
2023-04-04T14:18:26.653Z,8.21
2023-04-04T14:20:54.225Z,8.13
2023-04-04T14:23:20.591Z,8.00
2023-04-04T14:25:47.059Z,7.85
2023-04-04T14:28:13.860Z,8.49
2023-04-04T14:30:40.651Z,8.56
2023-04-04T14:33:07.095Z,7.93
2023-04-04T14:35:35.354Z,8.65
2023-04-04T14:38:04.672Z,8.29
2023-04-04T14:40:31.315Z,8.46
2023-04-04T14:42:57.988Z,8.46
2023-04-04T14:45:24.784Z,8.20
2023-04-04T14:47:51.300Z,8.12
2023-04-04T14:50:17.734Z,8.24
2023-04-04T14:52:45.911Z,8.20
2023-04-04T14:55:13.854Z,8.14
2023-04-04T14:57:56.909Z,7.95
2023-04-04T15:00:27.230Z,8.46
2023-04-04T15:02:53.672Z,8.21
2023-04-04T15:05:20.153Z,8.01
2023-04-04T15:07:47.111Z,8.14
2023-04-04T15:10:13.797Z,8.15
2023-04-04T15:12:40.509Z,7.93
2023-04-04T15:15:08.042Z,8.14
2023-04-04T15:17:34.411Z,8.05
2023-04-04T15:20:00.941Z,8.00
2023-04-04T15:22:27.729Z,7.58
2023-04-04T15:24:57.525Z,7.60
2023-04-04T15:27:24.348Z,7.51
2023-04-04T15:29:50.958Z,7.58
2023-04-04T15:32:17.394Z,7.86
2023-04-04T15:34:43.929Z,7.86
2023-04-04T15:37:10.498Z,7.90
2023-04-04T15:39:49.682Z,7.88
2023-04-04T15:42:19.122Z,7.74
2023-04-04T15:44:45.762Z,7.48
2023-04-04T15:47:12.541Z,7.69
2023-04-04T15:49:39.446Z,7.61
2023-04-04T15:52:06.344Z,7.18
2023-04-04T15:54:34.323Z,7.31
2023-04-04T15:57:02.339Z,7.57
2023-04-04T15:59:29.727Z,7.24
2023-04-04T16:01:56.426Z,7.47
2023-04-04T16:04:25.841Z,7.24
2023-04-04T16:06:53.063Z,7.24
2023-04-04T16:09:22.884Z,7.19
2023-04-04T16:11:52.684Z,7.04
2023-04-04T16:14:21.383Z,7.13
2023-04-04T16:16:48.863Z,7.25
2023-04-04T16:19:15.528Z,7.22
2023-04-04T16:21:43.834Z,7.23
2023-04-04T16:24:17.911Z,7.04
2023-04-04T16:26:44.362Z,7.11
2023-04-04T16:29:10.816Z,7.07
2023-04-04T16:31:37.297Z,6.92
2023-04-04T16:34:03.890Z,6.85
2023-04-04T16:36:31.037Z,6.74
2023-04-04T16:38:57.799Z,6.50
2023-04-04T16:41:24.221Z,6.54
2023-04-04T16:43:50.764Z,6.62
2023-04-04T16:46:17.500Z,6.61
2023-04-04T16:48:44.330Z,6.48
2023-04-04T16:51:11.434Z,6.48
2023-04-04T16:53:38.979Z,6.52
2023-04-04T16:56:05.766Z,6.63
2023-04-04T16:58:32.297Z,6.39
2023-04-04T17:00:59.076Z,6.38
2023-04-04T17:03:25.576Z,6.41
2023-04-04T17:05:52.977Z,6.30
2023-04-04T17:08:19.424Z,6.25
2023-04-04T17:10:45.847Z,6.22
2023-04-04T17:13:12.337Z,6.29
2023-04-04T17:15:39.101Z,6.15
2023-04-04T17:18:05.819Z,6.09
2023-04-04T17:20:34.696Z,5.90
2023-04-04T17:23:01.282Z,5.89
2023-04-04T17:25:27.962Z,5.86
2023-04-04T17:27:55.402Z,5.79
2023-04-04T17:30:22.032Z,5.68
2023-04-04T17:32:48.749Z,5.65
2023-04-04T17:35:15.725Z,5.58
2023-04-04T17:37:42.144Z,5.51
2023-04-04T17:40:08.846Z,5.42
2023-04-04T17:42:35.367Z,5.37
2023-04-04T17:45:02.051Z,5.31
2023-04-04T17:47:29.194Z,5.25
2023-04-04T17:49:56.635Z,5.12
2023-04-04T17:52:23.072Z,5.10
2023-04-04T17:54:49.631Z,5.07
2023-04-04T17:57:16.261Z,5.00
2023-04-04T17:59:42.768Z,4.92
2023-04-04T18:02:09.188Z,4.87
2023-04-04T18:04:36.786Z,4.76
2023-04-04T18:07:03.575Z,4.73
2023-04-04T18:09:30.155Z,4.69
2023-04-04T18:11:56.815Z,4.68
2023-04-04T18:14:23.369Z,4.60
2023-04-04T18:16:49.919Z,4.51
2023-04-04T18:19:16.415Z,4.47
2023-04-04T18:21:43.010Z,4.42
2023-04-04T18:24:09.737Z,4.54
2023-04-04T18:26:36.211Z,4.38
2023-04-04T18:29:03.302Z,4.35
2023-04-04T18:31:30.758Z,4.28
2023-04-04T18:33:57.183Z,4.23
2023-04-04T18:36:24.458Z,4.17
2023-04-04T18:38:51.017Z,4.13
2023-04-04T18:41:18.475Z,4.22
2023-04-04T18:43:46.721Z,4.09
2023-04-04T18:46:16.661Z,3.97
2023-04-04T18:48:43.400Z,3.96
2023-04-04T18:51:12.287Z,3.89
2023-04-04T18:53:39.164Z,3.83
2023-04-04T18:56:25.105Z,4.00
2023-04-04T18:58:56.735Z,3.92
2023-04-04T19:01:27.583Z,3.80
2023-04-04T19:06:39.640Z,3.68
2023-04-04T19:09:29.222Z,3.72
2023-04-04T19:11:56.036Z,3.80
2023-04-04T19:14:22.843Z,3.65
2023-04-04T19:16:49.529Z,3.65
2023-04-04T19:19:15.902Z,3.59
2023-04-04T19:21:42.596Z,3.54
2023-04-04T19:24:09.044Z,3.45
2023-04-04T19:26:37.502Z,3.40
2023-04-04T19:29:04.901Z,3.32
2023-04-04T19:31:32.858Z,3.22
2023-04-04T19:34:00.020Z,3.25
2023-04-04T19:36:26.508Z,3.26
2023-04-04T19:38:54.713Z,3.24
2023-04-04T19:41:41.031Z,3.26
2023-04-04T19:44:18.876Z,3.26
2023-04-04T19:46:45.611Z,3.27
2023-04-04T19:49:12.562Z,3.22
2023-04-04T19:51:53.905Z,3.09
2023-04-04T19:54:25.025Z,3.07
2023-04-04T19:56:56.562Z,3.03
2023-04-04T19:59:47.885Z,2.90
2023-04-04T20:02:51.401Z,2.76
2023-04-04T20:05:48.697Z,2.64
2023-04-04T20:08:16.069Z,2.52
2023-04-04T20:10:42.712Z,2.50
2023-04-04T20:13:09.739Z,2.41
2023-04-04T20:15:45.231Z,2.39
2023-04-04T20:18:20.610Z,2.35
2023-04-04T20:21:07.935Z,2.23
2023-04-04T20:23:41.810Z,2.16
2023-04-04T20:26:09.398Z,2.13
2023-04-04T20:28:36.824Z,2.06
2023-04-04T20:31:12.269Z,1.98
2023-04-04T20:33:40.170Z,1.92
2023-04-04T20:36:22.622Z,1.89
2023-04-04T20:38:49.229Z,1.82
2023-04-04T20:41:18.417Z,1.68
2023-04-04T20:43:54.573Z,1.66
2023-04-04T20:46:23.310Z,1.59
2023-04-04T20:48:51.110Z,1.66
2023-04-04T20:51:23.848Z,1.59
2023-04-04T20:53:52.782Z,1.53
2023-04-04T20:56:41.871Z,1.50
2023-04-04T20:59:32.335Z,1.43
2023-04-04T21:02:17.806Z,1.41
2023-04-04T21:04:45.422Z,1.33
2023-04-04T21:07:34.682Z,1.33
2023-04-04T21:10:01.366Z,1.26
2023-04-04T21:12:27.954Z,1.22
2023-04-04T21:14:54.504Z,1.21
2023-04-04T21:17:21.226Z,1.15
2023-04-04T21:19:47.554Z,1.19
2023-04-04T21:22:13.936Z,1.08
2023-04-04T21:24:40.458Z,1.08
2023-04-04T21:27:07.217Z,0.98
2023-04-04T21:29:33.613Z,0.95
2023-04-04T21:32:00.133Z,0.88
2023-04-04T21:34:27.437Z,0.81
2023-04-04T21:37:01.013Z,0.71
2023-04-04T21:39:29.634Z,0.69
2023-04-04T21:41:59.995Z,0.66
2023-04-04T21:44:26.678Z,0.59
2023-04-04T21:46:53.234Z,0.48
2023-04-04T21:49:19.860Z,0.45
2023-04-04T21:51:46.357Z,0.41
2023-04-04T21:54:13.027Z,0.33
2023-04-04T21:56:39.984Z,0.33
2023-04-04T21:59:08.169Z,0.35
2023-04-04T22:01:36.859Z,0.34
2023-04-04T22:04:03.541Z,0.34
2023-04-04T22:06:30.605Z,0.34
2023-04-04T22:08:59.662Z,0.32
2023-04-04T22:11:27.631Z,0.21
2023-04-04T22:13:55.045Z,0.19
2023-04-04T22:16:21.575Z,0.14
2023-04-04T22:18:49.266Z,0.13
2023-04-04T22:21:15.923Z,0.04
2023-04-04T22:23:43.024Z,-0.01
2023-04-04T22:26:12.691Z,-0.10
2023-04-04T22:28:40.129Z,-0.08
2023-04-04T22:31:06.498Z,-0.05
2023-04-04T22:33:32.947Z,-0.15
2023-04-04T22:36:01.097Z,-0.12
2023-04-04T22:38:29.703Z,-0.09
2023-04-04T22:40:57.773Z,-0.14
2023-04-04T22:43:25.752Z,-0.26
2023-04-04T22:45:53.021Z,-0.29
2023-04-04T22:48:21.374Z,-0.29
2023-04-04T22:50:48.120Z,-0.29
2023-04-04T22:53:14.454Z,-0.35
2023-04-04T22:55:41.212Z,-0.28
2023-04-04T22:58:08.382Z,-0.37
2023-04-04T23:00:35.301Z,-0.45
2023-04-04T23:03:01.809Z,-0.42
2023-04-04T23:05:29.537Z,-0.54
2023-04-04T23:08:01.169Z,-0.55
2023-04-04T23:10:27.546Z,-0.53
2023-04-04T23:12:55.423Z,-0.58
2023-04-04T23:15:22.311Z,-0.58
2023-04-04T23:17:48.761Z,-0.66
2023-04-04T23:20:15.263Z,-0.62
2023-04-04T23:22:41.887Z,-0.67
2023-04-04T23:25:08.526Z,-0.67
2023-04-04T23:27:35.322Z,-0.61
2023-04-04T23:30:02.356Z,-0.77
2023-04-04T23:32:29.037Z,-0.84
2023-04-04T23:34:55.796Z,-0.92
2023-04-04T23:37:22.170Z,-1.08
2023-04-04T23:39:48.517Z,-1.08
2023-04-04T23:42:15.104Z,-1.19
2023-04-04T23:44:41.489Z,-1.20
2023-04-04T23:47:08.326Z,-1.21
2023-04-04T23:49:34.919Z,-1.13
2023-04-04T23:52:01.423Z,-1.18
2023-04-04T23:54:27.864Z,-1.18
2023-04-04T23:56:54.475Z,-1.27
2023-04-04T23:59:20.998Z,-1.34
